Time;durP1;ratioP1;P1;durP2;ratioP2;P2;SDS_P1;SDS_P2;PMS_P1;PMS_P2;Temp;Humidity;BMP_temperature;BMP_pressure;BME280_temperature;BME280_humidity;BME280_pressure;Samples;Min_cycle;Max_cycle;Signal;HPM_P1;HPM_P2
2023/08/12 00:01:30;;;;;;;12.98;4.38;;;19.40;99.90;;;;;;5052070;28;20523;-85
2023/08/12 00:03:56;;;;;;;12.52;4.78;;;19.40;99.90;;;;;;5049162;28;20055;-83
2023/08/12 00:06:22;;;;;;;16.55;4.80;;;19.30;99.90;;;;;;5066138;28;20036;-83
2023/08/12 00:08:47;;;;;;;8.48;3.97;;;19.30;99.90;;;;;;5065474;28;20468;-83
2023/08/12 00:11:13;;;;;;;12.90;4.40;;;19.30;99.90;;;;;;5049059;28;20037;-82
2023/08/12 00:13:39;;;;;;;10.20;5.18;;;19.30;99.90;;;;;;5066423;28;20041;-83
2023/08/12 00:16:04;;;;;;;12.23;5.15;;;19.20;99.90;;;;;;5067306;28;20144;-83
2023/08/12 00:18:36;;;;;;;12.55;5.38;;;19.20;99.90;;;;;;5076790;28;20545;-83
2023/08/12 00:21:06;;;;;;;11.60;5.03;;;19.20;99.90;;;;;;5063158;28;20062;-83
2023/08/12 00:23:32;;;;;;;13.05;4.88;;;19.20;99.90;;;;;;5067600;28;20499;-84
2023/08/12 00:26:00;;;;;;;10.10;4.68;;;19.20;99.90;;;;;;5063195;28;20147;-84
2023/08/12 00:28:26;;;;;;;9.27;5.05;;;19.20;99.90;;;;;;5086703;28;20040;-84
2023/08/12 00:30:52;;;;;;;16.85;5.10;;;19.20;99.90;;;;;;5068078;28;20484;-84
2023/08/12 00:33:18;;;;;;;12.10;4.63;;;19.20;99.90;;;;;;5066137;28;20492;-84
2023/08/12 00:35:43;;;;;;;8.60;4.50;;;19.10;99.90;;;;;;5065595;28;20448;-84
2023/08/12 00:38:09;;;;;;;13.48;5.22;;;19.20;99.90;;;;;;5078173;28;20101;-83
2023/08/12 00:40:35;;;;;;;9.05;3.75;;;19.10;99.90;;;;;;5069755;28;20044;-84
2023/08/12 00:43:00;;;;;;;12.35;4.55;;;19.20;99.90;;;;;;5054714;28;20049;-83
2023/08/12 00:45:27;;;;;;;7.75;3.88;;;19.20;99.90;;;;;;5046271;28;20362;-84
2023/08/12 00:47:53;;;;;;;11.00;3.60;;;19.20;99.90;;;;;;5065224;28;20041;-84
2023/08/12 00:50:20;;;;;;;10.70;3.67;;;19.20;99.90;;;;;;5048811;28;20051;-84
2023/08/12 00:52:45;;;;;;;9.43;3.63;;;19.20;99.90;;;;;;5049398;28;20128;-83
2023/08/12 00:55:11;;;;;;;9.43;3.75;;;19.20;99.90;;;;;;5050209;28;20534;-83
2023/08/12 00:57:37;;;;;;;9.73;3.08;;;19.20;99.90;;;;;;5065231;28;20040;-84
2023/08/12 01:00:03;;;;;;;9.70;3.05;;;19.20;99.90;;;;;;5049756;28;20037;-84
2023/08/12 01:02:29;;;;;;;10.77;3.22;;;19.20;99.90;;;;;;5075904;28;20265;-84
2023/08/12 01:04:55;;;;;;;8.40;3.17;;;19.10;99.90;;;;;;5050559;28;20618;-84
2023/08/12 01:07:21;;;;;;;10.45;3.17;;;19.10;99.90;;;;;;5060188;28;20036;-84
2023/08/12 01:09:47;;;;;;;7.85;4.13;;;19.10;99.90;;;;;;5054003;28;20036;-84
2023/08/12 01:12:18;;;;;;;7.78;3.15;;;19.00;99.90;;;;;;5048623;28;20036;-84
2023/08/12 01:15:21;;;;;;;11.02;4.10;;;19.10;99.90;;;;;;5066458;28;20048;-84
2023/08/12 01:17:51;;;;;;;11.73;3.38;;;19.00;99.90;;;;;;5067128;28;20453;-84
2023/08/12 01:20:26;;;;;;;10.27;3.72;;;19.00;99.90;;;;;;5068895;28;20555;-83
2023/08/12 01:23:30;;;;;;;10.70;3.17;;;19.00;99.90;;;;;;5061898;28;20040;-84
2023/08/12 01:25:56;;;;;;;6.82;3.17;;;19.00;99.90;;;;;;5001234;28;20533;-84
2023/08/12 01:28:22;;;;;;;5.70;3.10;;;19.00;99.90;;;;;;5005480;28;20141;-84
2023/08/12 01:31:19;;;;;;;9.00;2.97;;;18.90;99.90;;;;;;5017150;28;20049;-84
2023/08/12 01:34:12;;;;;;;10.20;2.92;;;18.90;99.90;;;;;;5059000;28;20110;-84
2023/08/12 01:36:42;;;;;;;5.65;2.70;;;18.80;99.90;;;;;;5048356;28;20056;-84
2023/08/12 01:39:09;;;;;;;8.90;3.13;;;18.80;99.90;;;;;;5067264;28;20497;-84
2023/08/12 01:41:36;;;;;;;8.15;2.90;;;18.80;99.90;;;;;;5070224;28;20044;-84
2023/08/12 01:44:03;;;;;;;6.45;3.00;;;18.80;99.90;;;;;;5058449;28;20040;-84
2023/08/12 01:46:30;;;;;;;8.70;3.50;;;18.80;99.90;;;;;;5070724;28;20131;-84
2023/08/12 01:48:56;;;;;;;7.53;3.17;;;18.70;99.90;;;;;;5051370;28;20062;-84
2023/08/12 01:51:22;;;;;;;7.90;3.65;;;18.70;99.90;;;;;;5052291;28;20114;-83
2023/08/12 01:53:47;;;;;;;6.93;3.42;;;18.70;99.90;;;;;;5067339;28;20145;-84
2023/08/12 01:56:16;;;;;;;8.15;3.92;;;18.60;99.90;;;;;;5065975;28;20051;-84
2023/08/12 01:58:42;;;;;;;10.50;4.30;;;18.60;99.90;;;;;;5068532;28;20454;-84
2023/08/12 02:01:07;;;;;;;10.40;3.97;;;18.60;99.90;;;;;;5067338;28;20301;-84
2023/08/12 02:03:33;;;;;;;9.38;4.03;;;18.60;99.90;;;;;;5083589;28;20094;-84
2023/08/12 02:05:59;;;;;;;13.80;5.10;;;18.60;99.90;;;;;;5069564;28;20044;-84
2023/08/12 02:08:24;;;;;;;11.63;4.15;;;18.60;99.90;;;;;;5067934;28;20666;-83
2023/08/12 02:10:50;;;;;;;10.25;4.45;;;18.60;99.90;;;;;;5068019;28;20040;-84
2023/08/12 02:13:17;;;;;;;7.10;4.07;;;18.60;99.90;;;;;;5069891;28;20217;-84
2023/08/12 02:15:43;;;;;;;9.27;4.25;;;18.50;99.90;;;;;;5051095;28;20048;-84
2023/08/12 02:18:09;;;;;;;9.55;4.25;;;18.60;99.90;;;;;;5063006;28;20064;-84
2023/08/12 02:20:35;;;;;;;8.63;3.80;;;18.50;99.90;;;;;;5045255;28;20610;-83
2023/08/12 02:23:00;;;;;;;16.02;4.55;;;18.50;99.90;;;;;;5067225;28;20074;-83
2023/08/12 02:25:26;;;;;;;8.90;4.47;;;18.50;99.90;;;;;;5065570;28;20123;-84
2023/08/12 02:27:52;;;;;;;8.77;4.63;;;18.40;99.90;;;;;;5051419;28;20547;-84
2023/08/12 02:30:18;;;;;;;8.15;4.60;;;18.40;99.90;;;;;;5067597;28;20045;-84
2023/08/12 02:32:43;;;;;;;10.88;4.22;;;18.40;99.90;;;;;;5050479;28;20090;-84
2023/08/12 02:35:10;;;;;;;14.00;5.65;;;18.40;99.90;;;;;;5051738;28;20040;-85
2023/08/12 02:37:36;;;;;;;13.93;4.82;;;18.40;99.90;;;;;;5049856;28;20499;-84
2023/08/12 02:40:04;;;;;;;12.90;4.90;;;18.40;99.90;;;;;;5069225;28;20044;-84
2023/08/12 02:42:30;;;;;;;12.57;5.50;;;18.40;99.90;;;;;;5067394;28;20488;-83
2023/08/12 02:44:56;;;;;;;12.50;4.88;;;18.40;99.90;;;;;;5067363;28;20045;-83
2023/08/12 02:47:21;;;;;;;13.07;5.22;;;18.40;99.90;;;;;;5050113;28;20041;-82
2023/08/12 02:49:47;;;;;;;9.32;4.68;;;18.40;99.90;;;;;;5066686;28;20071;-84
2023/08/12 02:52:14;;;;;;;10.48;5.30;;;18.40;99.90;;;;;;5055636;28;20484;-84
2023/08/12 02:54:39;;;;;;;11.00;6.13;;;18.40;99.90;;;;;;5050508;28;20131;-84
2023/08/12 02:57:05;;;;;;;11.60;4.75;;;18.40;99.90;;;;;;5067110;28;20120;-84
2023/08/12 02:59:31;;;;;;;12.25;5.70;;;18.40;99.90;;;;;;5068034;28;20124;-84
2023/08/12 03:01:56;;;;;;;11.90;5.38;;;18.40;99.90;;;;;;5055514;28;20693;-83
2023/08/12 03:04:22;;;;;;;11.90;5.15;;;18.40;99.90;;;;;;5050992;28;20064;-84
2023/08/12 03:06:48;;;;;;;9.65;5.22;;;18.40;99.90;;;;;;5068341;28;20036;-84
2023/08/12 03:09:14;;;;;;;11.25;5.47;;;18.40;99.90;;;;;;5052165;28;20492;-84
2023/08/12 03:11:39;;;;;;;13.68;5.93;;;18.40;99.90;;;;;;5086312;28;20059;-83
2023/08/12 03:14:05;;;;;;;11.00;5.97;;;18.40;99.90;;;;;;5074319;28;20135;-84
2023/08/12 03:16:34;;;;;;;11.77;5.50;;;18.40;99.90;;;;;;5086114;28;20526;-84
2023/08/12 03:18:59;;;;;;;14.98;6.13;;;18.40;99.90;;;;;;5069073;28;20071;-84
2023/08/12 03:21:25;;;;;;;13.10;6.07;;;18.30;99.90;;;;;;5086956;28;20404;-84
2023/08/12 03:23:51;;;;;;;12.25;5.70;;;18.30;99.90;;;;;;5056282;28;20048;-84
2023/08/12 03:26:16;;;;;;;9.95;5.47;;;18.30;99.90;;;;;;5074376;28;20078;-85
2023/08/12 03:28:42;;;;;;;14.23;6.47;;;18.30;99.90;;;;;;5066777;28;20049;-84
2023/08/12 03:31:07;;;;;;;11.00;5.88;;;18.30;99.90;;;;;;5049335;28;20086;-84
2023/08/12 03:33:33;;;;;;;12.68;6.40;;;18.30;99.90;;;;;;5067620;28;20186;-85
2023/08/12 03:35:59;;;;;;;16.38;6.93;;;18.30;99.90;;;;;;5067392;28;20036;-84
2023/08/12 03:38:25;;;;;;;12.40;6.80;;;18.30;99.90;;;;;;5050155;28;20354;-85
2023/08/12 03:40:50;;;;;;;10.07;6.30;;;18.30;99.90;;;;;;5036731;28;20101;-84
2023/08/12 03:43:16;;;;;;;14.02;7.22;;;18.30;99.90;;;;;;5066715;28;20626;-84
2023/08/12 03:45:43;;;;;;;10.60;6.95;;;18.30;99.90;;;;;;5065903;28;20178;-84
2023/08/12 03:48:09;;;;;;;15.65;7.32;;;18.30;99.90;;;;;;5064853;28;20119;-84
2023/08/12 03:50:38;;;;;;;16.60;8.18;;;18.30;99.90;;;;;;5049493;28;20132;-83
2023/08/12 03:53:05;;;;;;;13.07;7.30;;;18.30;99.90;;;;;;5065738;28;20072;-84
2023/08/12 03:55:32;;;;;;;15.50;7.95;;;18.30;99.90;;;;;;5049798;28;20423;-84
2023/08/12 03:57:58;;;;;;;12.45;7.32;;;18.30;99.90;;;;;;5066527;28;20424;-84
2023/08/12 04:00:24;;;;;;;11.27;6.80;;;18.40;99.90;;;;;;5065797;28;20055;-84
2023/08/12 04:02:49;;;;;;;15.98;7.32;;;18.30;99.90;;;;;;5063919;28;20404;-84
2023/08/12 04:05:15;;;;;;;16.88;8.65;;;18.40;99.90;;;;;;5049178;28;20062;-83
2023/08/12 04:07:41;;;;;;;16.88;8.57;;;18.40;99.90;;;;;;5064342;28;20049;-84
2023/08/12 04:10:07;;;;;;;18.23;8.85;;;18.40;99.90;;;;;;5066709;28;20052;-84
2023/08/12 04:12:33;;;;;;;16.77;8.57;;;18.40;99.90;;;;;;5065067;28;20048;-84
2023/08/12 04:14:59;;;;;;;16.45;8.48;;;18.40;99.90;;;;;;5066612;28;20148;-84
2023/08/12 04:17:25;;;;;;;16.67;9.18;;;18.40;99.90;;;;;;5064679;28;20048;-85
2023/08/12 04:19:51;;;;;;;16.05;8.90;;;18.40;99.90;;;;;;5065565;28;20389;-85
2023/08/12 04:22:16;;;;;;;16.63;8.60;;;18.40;99.90;;;;;;5065104;28;20051;-83
2023/08/12 04:24:42;;;;;;;14.73;8.32;;;18.40;99.90;;;;;;5049458;28;20040;-84
2023/08/12 04:27:08;;;;;;;14.65;8.23;;;18.50;99.90;;;;;;5065367;28;20435;-84
2023/08/12 04:29:35;;;;;;;15.27;8.48;;;18.50;99.90;;;;;;5048056;28;20045;-84
2023/08/12 04:32:01;;;;;;;14.88;8.60;;;18.50;99.90;;;;;;5066032;28;20074;-84
2023/08/12 04:34:27;;;;;;;16.00;9.50;;;18.50;99.90;;;;;;5066027;28;20040;-84
2023/08/12 04:36:52;;;;;;;20.25;9.35;;;18.60;99.90;;;;;;5047413;28;20040;-84
2023/08/12 04:39:18;;;;;;;14.40;9.02;;;18.50;99.90;;;;;;5066268;28;20389;-84
2023/08/12 04:41:44;;;;;;;19.65;9.00;;;18.60;99.90;;;;;;5049054;28;20048;-84
2023/08/12 04:44:09;;;;;;;17.75;9.48;;;18.60;99.90;;;;;;5065067;28;20037;-84
2023/08/12 04:46:35;;;;;;;19.98;9.57;;;18.60;99.90;;;;;;5048465;28;20048;-84
2023/08/12 04:49:01;;;;;;;19.08;9.50;;;18.60;99.90;;;;;;5066342;28;20033;-84
2023/08/12 04:51:26;;;;;;;13.70;9.25;;;18.70;99.90;;;;;;5064636;28;20040;-84
2023/08/12 04:53:52;;;;;;;22.10;9.70;;;18.70;99.90;;;;;;5048757;28;20190;-85
2023/08/12 04:56:18;;;;;;;15.88;9.63;;;18.70;99.90;;;;;;5064544;28;20051;-84
2023/08/12 04:58:44;;;;;;;17.75;9.85;;;18.70;99.90;;;;;;5066578;28;20083;-85
2023/08/12 05:01:09;;;;;;;17.10;10.10;;;18.70;99.90;;;;;;5063637;28;20053;-84
2023/08/12 05:03:35;;;;;;;14.27;8.82;;;18.70;99.90;;;;;;5079409;28;20048;-84
2023/08/12 05:06:00;;;;;;;21.10;9.75;;;18.80;99.90;;;;;;5064944;28;20481;-85
2023/08/12 05:08:26;;;;;;;22.85;10.38;;;18.80;99.90;;;;;;5066785;28;20086;-83
2023/08/12 05:10:52;;;;;;;19.15;9.45;;;18.80;99.90;;;;;;5060620;28;20498;-82
2023/08/12 05:13:18;;;;;;;13.27;8.85;;;18.80;99.90;;;;;;5050690;28;20074;-83
2023/08/12 05:15:47;;;;;;;18.52;9.55;;;18.90;99.90;;;;;;5069921;28;20468;-82
2023/08/12 05:18:13;;;;;;;18.60;10.00;;;18.90;99.90;;;;;;5067742;28;20068;-84
2023/08/12 05:20:41;;;;;;;18.55;9.55;;;18.90;99.90;;;;;;5051768;28;20052;-85
2023/08/12 05:23:06;;;;;;;18.40;9.38;;;18.90;99.90;;;;;;5052457;28;20381;-85
2023/08/12 05:25:32;;;;;;;20.75;9.90;;;19.00;99.90;;;;;;5048326;28;20064;-83
2023/08/12 05:27:58;;;;;;;19.75;9.65;;;19.00;99.90;;;;;;5068987;28;20124;-84
2023/08/12 05:30:24;;;;;;;19.05;9.32;;;19.10;99.90;;;;;;5068899;28;20111;-84
2023/08/12 05:32:49;;;;;;;14.95;9.13;;;19.20;99.90;;;;;;5066779;28;20405;-85
2023/08/12 05:35:15;;;;;;;18.75;8.88;;;19.30;99.90;;;;;;5070570;28;20555;-84
2023/08/12 05:37:41;;;;;;;18.10;8.70;;;19.40;99.90;;;;;;5067770;28;20075;-84
2023/08/12 05:40:09;;;;;;;19.35;8.98;;;19.50;99.90;;;;;;5069516;28;20520;-85
2023/08/12 05:42:35;;;;;;;12.88;8.48;;;19.60;99.90;;;;;;5068134;28;20037;-85
2023/08/12 05:45:02;;;;;;;13.68;7.75;;;19.70;99.90;;;;;;5057091;28;20135;-85
2023/08/12 05:47:27;;;;;;;16.60;8.80;;;19.90;99.90;;;;;;5050376;28;20141;-85
2023/08/12 05:49:53;;;;;;;16.85;8.52;;;19.90;99.90;;;;;;5068186;28;20131;-85
2023/08/12 05:52:19;;;;;;;14.07;8.88;;;20.00;99.90;;;;;;5070206;28;20044;-86
2023/08/12 05:54:45;;;;;;;18.38;8.50;;;20.10;99.90;;;;;;5053593;28;20109;-86
2023/08/12 05:57:10;;;;;;;13.88;8.77;;;20.10;99.90;;;;;;5052292;28;20076;-85
2023/08/12 05:59:36;;;;;;;19.98;8.60;;;20.10;99.90;;;;;;5069813;28;20395;-85
2023/08/12 06:02:02;;;;;;;17.00;8.18;;;20.20;99.90;;;;;;5083333;28;20056;-85
2023/08/12 06:04:27;;;;;;;16.70;8.05;;;20.20;99.90;;;;;;5067030;28;20481;-84
2023/08/12 06:06:53;;;;;;;12.27;7.70;;;20.20;99.90;;;;;;5066787;28;20504;-81
2023/08/12 06:09:19;;;;;;;13.73;8.00;;;20.20;99.90;;;;;;5069671;28;20456;-83
2023/08/12 06:11:45;;;;;;;11.80;7.00;;;20.30;99.90;;;;;;5053926;28;20041;-84
2023/08/12 06:14:10;;;;;;;17.25;8.57;;;20.30;99.90;;;;;;5057920;28;20127;-84
2023/08/12 06:16:36;;;;;;;14.00;7.50;;;20.40;99.90;;;;;;5054569;28;20045;-84
2023/08/12 06:19:02;;;;;;;16.30;7.50;;;20.50;99.90;;;;;;5079458;28;20044;-85
2023/08/12 06:21:28;;;;;;;16.45;7.53;;;20.60;99.90;;;;;;5053080;28;20432;-83
2023/08/12 06:23:53;;;;;;;12.27;7.60;;;20.70;99.90;;;;;;5073877;28;20040;-83
2023/08/12 06:26:19;;;;;;;12.73;7.65;;;20.70;99.90;;;;;;5065508;28;20044;-84
2023/08/12 06:28:45;;;;;;;12.13;7.13;;;20.70;99.90;;;;;;5085311;28;20508;-84
2023/08/12 06:31:11;;;;;;;13.90;7.72;;;20.70;99.90;;;;;;5050279;28;20064;-85
2023/08/12 06:33:36;;;;;;;17.02;8.43;;;20.70;99.90;;;;;;5059802;28;20460;-85
2023/08/12 06:36:04;;;;;;;15.43;7.70;;;20.70;99.90;;;;;;5068981;28;20515;-85
2023/08/12 06:38:29;;;;;;;14.55;7.28;;;20.70;99.90;;;;;;5080707;28;20044;-86
2023/08/12 06:40:55;;;;;;;18.23;10.93;;;20.70;99.90;;;;;;5078019;28;20432;-87
2023/08/12 06:43:21;;;;;;;18.33;11.05;;;20.70;99.90;;;;;;5064290;28;20070;-86
2023/08/12 06:45:46;;;;;;;19.77;9.15;;;20.70;99.90;;;;;;5075771;28;20446;-86
2023/08/12 06:48:12;;;;;;;17.88;9.07;;;20.70;99.90;;;;;;5068246;28;20101;-86
2023/08/12 06:50:38;;;;;;;13.77;7.80;;;20.70;99.90;;;;;;5067350;28;20506;-90
2023/08/12 06:53:04;;;;;;;20.65;8.95;;;20.80;99.90;;;;;;5063761;28;20047;-88
2023/08/12 06:55:29;;;;;;;13.68;7.63;;;20.80;99.90;;;;;;5066054;28;20051;-88
2023/08/12 06:57:55;;;;;;;15.77;7.63;;;20.80;99.90;;;;;;5075360;28;20075;-88
2023/08/12 07:00:21;;;;;;;14.13;7.82;;;20.80;99.90;;;;;;5063074;28;20040;-90
2023/08/12 07:02:47;;;;;;;16.92;8.05;;;20.80;99.90;;;;;;5060202;28;20052;-89
2023/08/12 07:05:13;;;;;;;16.63;7.53;;;20.90;99.90;;;;;;5048905;28;20044;-90
2023/08/12 07:07:38;;;;;;;22.00;9.15;;;20.80;99.90;;;;;;5073883;28;20101;-86
2023/08/12 07:10:06;;;;;;;20.88;8.40;;;20.80;99.90;;;;;;5072795;28;20055;-87
2023/08/12 07:12:32;;;;;;;14.05;8.60;;;20.80;99.90;;;;;;5072417;28;20144;-87
2023/08/12 07:14:58;;;;;;;18.55;8.73;;;20.80;99.90;;;;;;5052266;28;20698;-88
2023/08/12 07:17:24;;;;;;;15.25;8.77;;;20.70;99.90;;;;;;5072142;28;20516;-90
2023/08/12 07:19:50;;;;;;;16.52;8.35;;;20.70;99.90;;;;;;5069252;28;20052;-89
2023/08/12 07:22:19;;;;;;;15.68;8.65;;;20.70;99.90;;;;;;5074522;28;20083;-90
2023/08/12 07:24:45;;;;;;;18.77;8.68;;;20.70;99.90;;;;;;5055067;28;20045;-89
2023/08/12 07:27:10;;;;;;;18.38;9.50;;;20.70;99.90;;;;;;5069681;28;20041;-90
2023/08/12 07:29:36;;;;;;;15.02;8.65;;;20.70;99.90;;;;;;5051373;28;20040;-89
2023/08/12 07:32:02;;;;;;;16.92;8.90;;;20.70;99.90;;;;;;5070634;28;20048;-89
2023/08/12 07:34:28;;;;;;;21.15;8.80;;;20.80;99.90;;;;;;5055909;28;20063;-87
2023/08/12 07:36:53;;;;;;;16.55;9.15;;;20.90;99.90;;;;;;5058166;28;20067;-88
2023/08/12 07:39:19;;;;;;;18.60;9.02;;;20.90;99.90;;;;;;5053046;28;20487;-89
2023/08/12 07:41:45;;;;;;;17.02;9.38;;;21.00;99.90;;;;;;5072450;28;20040;-88
2023/08/12 07:44:11;;;;;;;19.88;9.57;;;21.00;99.90;;;;;;5069356;28;20052;-89
2023/08/12 07:46:36;;;;;;;16.17;8.93;;;21.00;99.90;;;;;;5071584;28;20041;-88
2023/08/12 07:49:02;;;;;;;20.45;8.85;;;21.10;99.90;;;;;;5043969;28;20048;-86
2023/08/12 07:51:28;;;;;;;22.35;9.55;;;21.10;99.90;;;;;;5054854;28;20641;-84
2023/08/12 07:53:54;;;;;;;17.77;9.63;;;21.10;99.90;;;;;;5050309;28;20047;-84
2023/08/12 07:56:19;;;;;;;20.20;9.90;;;21.10;99.90;;;;;;5065742;28;20067;-84
2023/08/12 07:58:45;;;;;;;16.38;10.13;;;21.10;99.90;;;;;;5066211;28;20121;-84
2023/08/12 08:01:11;;;;;;;35.50;16.88;;;21.10;99.90;;;;;;5066154;28;20060;-85
2023/08/12 08:03:37;;;;;;;24.25;11.60;;;21.10;99.90;;;;;;5068059;28;20050;-84
2023/08/12 08:06:03;;;;;;;20.98;10.60;;;21.10;99.90;;;;;;5049394;28;20123;-84
2023/08/12 08:08:28;;;;;;;23.08;10.70;;;21.20;99.90;;;;;;5066568;28;20484;-85
2023/08/12 08:10:54;;;;;;;20.92;10.75;;;21.10;99.90;;;;;;5078903;28;20387;-84
2023/08/12 08:13:20;;;;;;;19.98;10.45;;;21.10;99.90;;;;;;5065662;28;20039;-84
2023/08/12 08:15:46;;;;;;;21.30;11.27;;;21.10;99.90;;;;;;5078475;28;20829;-84
2023/08/12 08:18:12;;;;;;;17.75;10.55;;;21.00;99.90;;;;;;5068257;28;20071;-84
2023/08/12 08:20:37;;;;;;;22.02;11.70;;;21.00;99.90;;;;;;5071111;28;20384;-84
2023/08/12 08:23:03;;;;;;;20.92;10.77;;;20.90;99.90;;;;;;5076324;28;20051;-84
2023/08/12 08:25:29;;;;;;;25.30;11.57;;;20.90;99.90;;;;;;5071046;28;20079;-87
2023/08/12 08:27:55;;;;;;;17.63;12.05;;;21.00;99.90;;;;;;5084421;28;20498;-84
2023/08/12 08:30:22;;;;;;;21.70;11.23;;;20.90;99.90;;;;;;5074593;28;20486;-88
2023/08/12 08:32:48;;;;;;;21.33;11.70;;;21.00;99.90;;;;;;5058947;28;20183;-88
2023/08/12 08:35:14;;;;;;;23.38;11.88;;;21.00;99.90;;;;;;5081174;28;20542;-87
2023/08/12 08:37:41;;;;;;;22.92;12.43;;;21.00;99.90;;;;;;5066878;28;20036;-87
2023/08/12 08:40:08;;;;;;;19.23;11.30;;;21.10;99.90;;;;;;5059918;28;20127;-87
2023/08/12 08:42:34;;;;;;;27.58;11.80;;;21.10;99.90;;;;;;5057329;28;20082;-87
2023/08/12 08:45:02;;;;;;;25.20;11.25;;;21.20;99.90;;;;;;5073608;28;20040;-87
2023/08/12 08:47:28;;;;;;;20.80;10.82;;;21.20;99.90;;;;;;5050946;28;20052;-86
2023/08/12 08:49:56;;;;;;;24.27;12.40;;;21.20;99.90;;;;;;5074220;28;20047;-87
2023/08/12 08:52:23;;;;;;;19.95;11.98;;;21.20;99.90;;;;;;5060353;28;20093;-87
2023/08/12 08:54:50;;;;;;;21.77;10.75;;;21.20;99.90;;;;;;5079495;28;20104;-87
2023/08/12 08:57:16;;;;;;;20.02;11.20;;;21.20;99.90;;;;;;5068848;28;20044;-86
2023/08/12 08:59:41;;;;;;;19.55;12.15;;;21.20;99.90;;;;;;5057569;28;20064;-89
2023/08/12 09:02:16;;;;;;;19.67;11.70;;;21.10;99.90;;;;;;5051653;28;20102;-89
2023/08/12 09:04:46;;;;;;;19.73;12.30;;;21.10;99.90;;;;;;5082318;28;20053;-89
2023/08/12 09:07:13;;;;;;;22.08;12.40;;;21.10;99.90;;;;;;5059553;28;20124;-90
2023/08/12 09:09:48;;;;;;;20.90;12.70;;;21.10;99.90;;;;;;5048644;28;20085;-89
2023/08/12 09:12:15;;;;;;;20.80;13.93;;;21.00;99.90;;;;;;5052249;28;20044;-89
2023/08/12 09:14:42;;;;;;;25.33;13.95;;;21.00;99.90;;;;;;5052917;28;20545;-88
2023/08/12 09:17:08;;;;;;;24.92;14.52;;;20.90;99.90;;;;;;5071714;28;20102;-89
2023/08/12 09:22:19;;;;;;;32.20;15.98;;;20.90;99.90;;;;;;5070313;28;20500;-89
2023/08/12 09:24:45;;;;;;;26.00;15.73;;;20.80;99.90;;;;;;5069495;28;20063;-87
2023/08/12 09:27:11;;;;;;;30.73;16.05;;;20.80;99.90;;;;;;5063557;28;20075;-86
2023/08/12 09:29:37;;;;;;;27.48;17.50;;;20.80;99.90;;;;;;5039995;28;20048;-81
2023/08/12 09:32:12;;;;;;;31.95;17.60;;;20.80;99.90;;;;;;5065670;28;20431;-82
2023/08/12 09:34:45;;;;;;;25.77;16.23;;;20.80;99.90;;;;;;5069222;28;20458;-82
2023/08/12 09:37:12;;;;;;;29.55;18.35;;;20.80;99.90;;;;;;5073847;28;20076;-82
2023/08/12 09:39:38;;;;;;;31.88;18.15;;;20.80;99.90;;;;;;5070205;28;20085;-82
2023/08/12 09:42:05;;;;;;;32.50;18.55;;;20.90;99.90;;;;;;5055495;28;20064;-83
2023/08/12 09:44:34;;;;;;;33.58;18.33;;;20.90;99.90;;;;;;5059236;28;20135;-82
2023/08/12 09:47:00;;;;;;;28.40;17.73;;;20.90;99.90;;;;;;5066141;28;20515;-82
2023/08/12 09:49:26;;;;;;;28.63;17.35;;;20.90;99.90;;;;;;5077837;28;20047;-82
2023/08/12 09:51:52;;;;;;;32.42;17.90;;;20.90;99.90;;;;;;5067015;28;20048;-82
2023/08/12 09:54:19;;;;;;;29.35;17.33;;;20.90;99.90;;;;;;5064668;28;20044;-83
2023/08/12 09:56:48;;;;;;;30.50;18.02;;;20.90;99.90;;;;;;5043080;28;20056;-83
2023/08/12 09:59:22;;;;;;;31.98;18.42;;;20.90;99.90;;;;;;5065666;28;20040;-83
2023/08/12 10:01:52;;;;;;;30.83;18.98;;;21.00;99.90;;;;;;5068223;28;20044;-85
2023/08/12 10:04:21;;;;;;;28.70;17.35;;;21.00;99.90;;;;;;5048223;28;20051;-84
2023/08/12 10:06:47;;;;;;;31.15;19.00;;;21.00;99.90;;;;;;5061890;28;20049;-84
2023/08/12 10:09:15;;;;;;;29.45;18.45;;;21.00;99.90;;;;;;5058246;28;20044;-85
2023/08/12 10:11:43;;;;;;;26.23;16.42;;;21.00;99.90;;;;;;5051620;28;20062;-84
2023/08/12 10:14:10;;;;;;;27.35;17.17;;;21.10;99.90;;;;;;5062317;28;20132;-84
2023/08/12 10:16:37;;;;;;;26.73;17.52;;;21.00;99.90;;;;;;5069690;28;20533;-84
2023/08/12 10:19:05;;;;;;;26.20;15.93;;;21.00;99.90;;;;;;5065068;28;20048;-82
2023/08/12 10:21:32;;;;;;;25.13;14.55;;;21.00;99.90;;;;;;5068435;28;20463;-83
2023/08/12 10:23:58;;;;;;;25.85;14.70;;;21.00;99.90;;;;;;5068240;28;20048;-83
2023/08/12 10:26:26;;;;;;;24.27;14.27;;;21.00;99.90;;;;;;5061038;28;20050;-83
2023/08/12 10:28:52;;;;;;;20.48;12.40;;;21.00;99.90;;;;;;5069230;28;20534;-84
2023/08/12 10:31:19;;;;;;;19.02;12.85;;;20.90;99.90;;;;;;5066970;28;20083;-83
2023/08/12 10:33:48;;;;;;;22.70;13.30;;;20.90;99.90;;;;;;5065704;28;20508;-82
2023/08/12 10:36:15;;;;;;;19.13;12.27;;;20.90;99.90;;;;;;5067847;28;20091;-82
2023/08/12 10:38:43;;;;;;;19.45;12.85;;;21.00;99.90;;;;;;5067609;28;20361;-82
2023/08/12 10:41:23;;;;;;;17.88;12.20;;;21.00;99.90;;;;;;5067561;28;20052;-81
2023/08/12 10:43:53;;;;;;;20.38;12.63;;;21.10;99.90;;;;;;5054219;28;20259;-81
2023/08/12 10:46:37;;;;;;;24.92;12.70;;;21.10;99.90;;;;;;5067120;28;20052;-82
2023/08/12 10:49:10;;;;;;;20.73;11.98;;;21.10;99.90;;;;;;5067289;28;20076;-82
2023/08/12 10:51:53;;;;;;;15.93;9.57;;;21.20;99.90;;;;;;5068898;28;20045;-82
2023/08/12 10:54:22;;;;;;;10.80;5.78;;;21.30;99.90;;;;;;5049292;28;20246;-82
2023/08/12 10:57:03;;;;;;;9.63;4.55;;;21.30;99.90;;;;;;5050748;28;20770;-83
2023/08/12 10:59:53;;;;;;;6.30;3.05;;;21.20;99.90;;;;;;5065816;28;20078;-83
2023/08/12 11:02:29;;;;;;;5.88;2.55;;;21.10;99.90;;;;;;5064224;28;20052;-83
2023/08/12 11:05:03;;;;;;;5.57;2.85;;;21.00;99.90;;;;;;5066688;28;20059;-83
2023/08/12 11:07:39;;;;;;;5.43;2.80;;;20.90;99.90;;;;;;5067868;28;20048;-83
2023/08/12 11:10:19;;;;;;;7.60;3.05;;;20.80;99.90;;;;;;5077055;28;20510;-83
2023/08/12 11:12:56;;;;;;;6.68;2.70;;;20.70;99.90;;;;;;5079260;28;20087;-83
2023/08/12 11:15:36;;;;;;;8.25;3.60;;;20.60;99.90;;;;;;5080881;28;20051;-84
2023/08/12 11:18:07;;;;;;;6.93;3.25;;;20.60;99.90;;;;;;5067761;28;20399;-82
2023/08/12 11:20:34;;;;;;;7.50;2.53;;;20.60;99.90;;;;;;5067181;28;20425;-83
2023/08/12 11:23:01;;;;;;;6.15;2.67;;;20.60;99.90;;;;;;5071112;28;20041;-83
2023/08/12 11:25:30;;;;;;;4.70;2.60;;;20.60;99.90;;;;;;5067175;28;20404;-83
2023/08/12 11:27:56;;;;;;;5.20;2.42;;;20.60;99.90;;;;;;5067441;28;20118;-82
2023/08/12 11:30:22;;;;;;;5.53;2.60;;;20.60;99.90;;;;;;5072166;28;20028;-83
2023/08/12 11:32:53;;;;;;;7.45;2.40;;;20.70;99.90;;;;;;5068098;28;20077;-83
2023/08/12 11:35:20;;;;;;;5.38;2.47;;;20.70;99.90;;;;;;5071926;28;20912;-83
2023/08/12 11:37:58;;;;;;;7.35;2.65;;;20.80;99.90;;;;;;5051621;28;20117;-83
2023/08/12 11:40:25;;;;;;;5.13;2.55;;;20.90;99.90;;;;;;5073627;28;20039;-83
2023/08/12 11:42:51;;;;;;;9.98;3.00;;;21.00;99.90;;;;;;5052881;28;20048;-82
2023/08/12 11:45:19;;;;;;;5.95;2.53;;;21.10;99.90;;;;;;5068839;28;20044;-82
2023/08/12 11:47:52;;;;;;;5.55;2.60;;;21.20;99.90;;;;;;5068488;28;20048;-83
2023/08/12 11:50:22;;;;;;;4.50;2.25;;;21.30;99.90;;;;;;5067609;28;20488;-82
2023/08/12 11:52:49;;;;;;;4.55;2.17;;;21.40;99.90;;;;;;5057896;28;20042;-84
2023/08/12 11:55:15;;;;;;;5.32;1.98;;;21.50;99.90;;;;;;5050560;28;20052;-84
2023/08/12 11:57:42;;;;;;;2.25;1.10;;;21.50;99.90;;;;;;5072659;28;20073;-86
2023/08/12 12:00:13;;;;;;;4.35;1.20;;;21.50;99.90;;;;;;5080421;28;20049;-86
2023/08/12 12:02:57;;;;;;;2.25;1.30;;;21.50;99.90;;;;;;5080863;28;20044;-83
2023/08/12 12:05:27;;;;;;;2.78;0.90;;;21.50;99.90;;;;;;5081042;28;20059;-84
2023/08/12 12:07:53;;;;;;;3.53;0.90;;;21.40;99.90;;;;;;5061954;28;20123;-84
2023/08/12 12:10:31;;;;;;;1.60;0.43;;;21.30;99.90;;;;;;5070593;28;20131;-83
2023/08/12 12:12:57;;;;;;;4.60;0.60;;;21.20;99.90;;;;;;5080233;28;20049;-90
2023/08/12 12:15:23;;;;;;;5.97;1.00;;;21.00;99.90;;;;;;5089373;28;20040;-90
2023/08/12 12:17:52;;;;;;;5.40;1.35;;;20.80;99.90;;;;;;5045697;28;20045;-92
2023/08/12 12:20:19;;;;;;;5.80;1.67;;;20.50;99.90;;;;;;5053099;28;20058;-88
2023/08/12 12:22:48;;;;;;;4.35;1.35;;;20.20;99.90;;;;;;5063020;28;20114;-93
2023/08/12 12:25:23;;;;;;;4.88;1.48;;;20.10;99.90;;;;;;5069406;28;20048;-90
2023/08/12 12:27:48;;;;;;;5.30;1.60;;;19.90;99.90;;;;;;5052396;28;20032;-90
2023/08/12 12:30:16;;;;;;;5.93;1.80;;;19.90;99.90;;;;;;5087305;28;20442;-90
2023/08/12 12:32:42;;;;;;;5.15;1.70;;;19.80;99.90;;;;;;5052567;28;20045;-87
2023/08/12 12:35:08;;;;;;;6.95;2.08;;;19.80;99.90;;;;;;5052410;28;20123;-89
2023/08/12 12:37:37;;;;;;;5.00;2.10;;;19.70;99.90;;;;;;5052323;28;20050;-88
2023/08/12 12:40:05;;;;;;;9.48;2.10;;;19.60;99.90;;;;;;5069140;28;20048;-91
2023/08/12 12:42:31;;;;;;;6.53;2.17;;;19.60;99.90;;;;;;5071525;28;20041;-88